createdAt,value
2022-09-12T00:00:09.914Z,1013.17
2022-09-12T00:01:09.914Z,1013.17
2022-09-12T00:02:09.945Z,1013.14
2022-09-12T00:03:10.193Z,1013.14
2022-09-12T00:04:09.943Z,1013.08
2022-09-12T00:05:09.832Z,1013.09
2022-09-12T00:06:09.868Z,1013.11
2022-09-12T00:07:09.805Z,1013.10
2022-09-12T00:08:09.941Z,1013.07
2022-09-12T00:09:09.784Z,1013.06
2022-09-12T00:10:09.883Z,1013.06
2022-09-12T00:11:09.759Z,1013.04
2022-09-12T00:12:09.795Z,1013.05
2022-09-12T00:13:09.756Z,1013.06
2022-09-12T00:14:09.823Z,1013.12
2022-09-12T00:15:09.712Z,1013.09
2022-09-12T00:16:09.739Z,1013.11
2022-09-12T00:17:09.693Z,1013.07
2022-09-12T00:18:09.787Z,1013.05
2022-09-12T00:19:09.671Z,1013.00
2022-09-12T00:20:09.747Z,1013.05
2022-09-12T00:21:09.663Z,1013.01
2022-09-12T00:22:09.661Z,1013.00
2022-09-12T00:23:09.645Z,1012.98
2022-09-12T00:24:09.687Z,1013.00
2022-09-12T00:25:09.608Z,1012.96
2022-09-12T00:26:09.686Z,1013.03
2022-09-12T00:27:09.583Z,1012.99
2022-09-12T00:28:15.694Z,1012.96
2022-09-12T00:29:09.559Z,1013.01
2022-09-12T00:30:11.560Z,1012.99
2022-09-12T00:31:09.538Z,1012.96
2022-09-12T00:32:10.549Z,1012.95
2022-09-12T00:33:09.533Z,1012.93
2022-09-12T00:34:09.538Z,1012.94
2022-09-12T00:35:09.495Z,1012.90
2022-09-12T00:36:09.550Z,1012.93
2022-09-12T00:37:09.472Z,1012.91
2022-09-12T00:38:09.516Z,1012.93
2022-09-12T00:39:09.447Z,1012.89
2022-09-12T00:40:09.685Z,1012.91
2022-09-12T00:41:09.425Z,1012.94
2022-09-12T00:42:09.490Z,1012.92
2022-09-12T00:43:09.426Z,1012.92
2022-09-12T00:44:09.503Z,1012.89
2022-09-12T00:45:09.383Z,1012.88
2022-09-12T00:46:09.415Z,1012.89
2022-09-12T00:47:09.360Z,1012.87
2022-09-12T00:48:09.496Z,1012.84
2022-09-12T00:49:09.353Z,1012.80
2022-09-12T00:50:09.341Z,1012.82
2022-09-12T00:51:09.321Z,1012.83
2022-09-12T00:52:09.355Z,1012.83
2022-09-12T00:53:09.310Z,1012.85
2022-09-12T00:54:09.368Z,1012.83
2022-09-12T00:55:09.272Z,1012.83
2022-09-12T00:56:09.297Z,1012.81
2022-09-12T00:57:09.249Z,1012.79
2022-09-12T00:58:09.345Z,1012.77
2022-09-12T00:59:09.230Z,1012.80
2022-09-12T01:00:09.306Z,1012.73
2022-09-12T01:01:09.349Z,1012.75
2022-09-12T01:02:09.373Z,1012.73
2022-09-12T01:03:09.202Z,1012.73
2022-09-12T01:04:09.232Z,1012.73
2022-09-12T01:05:09.160Z,1012.70
2022-09-12T01:06:09.245Z,1012.68
2022-09-12T01:07:09.141Z,1012.68
2022-09-12T01:08:09.206Z,1012.68
2022-09-12T01:09:09.125Z,1012.70
2022-09-12T01:10:10.198Z,1012.71
2022-09-12T01:11:09.096Z,1012.69
2022-09-12T01:12:09.200Z,1012.74
2022-09-12T01:13:09.089Z,1012.76
2022-09-12T01:15:18.676Z,1012.72
2022-09-12T01:16:18.582Z,1012.68
2022-09-12T01:17:18.640Z,1012.68
2022-09-12T01:18:18.570Z,1012.68
2022-09-12T01:19:18.552Z,1012.67
2022-09-12T01:20:18.532Z,1012.68
2022-09-12T01:21:19.590Z,1012.66
2022-09-12T01:22:18.506Z,1012.68
2022-09-12T01:23:18.529Z,1012.63
2022-09-12T01:24:18.481Z,1012.68
2022-09-12T01:25:18.491Z,1012.64
2022-09-12T01:26:18.462Z,1012.66
2022-09-12T01:27:39.513Z,1012.71
2022-09-12T01:28:18.456Z,1012.65
2022-09-12T01:29:20.465Z,1012.64
2022-09-12T01:30:18.424Z,1012.60
2022-09-12T01:31:18.437Z,1012.67
2022-09-12T01:32:18.472Z,1012.63
2022-09-12T01:33:18.509Z,1012.63
2022-09-12T01:34:18.370Z,1012.63
2022-09-12T01:35:18.460Z,1012.67
2022-09-12T01:36:18.351Z,1012.63
2022-09-12T01:37:18.371Z,1012.62
2022-09-12T01:38:18.352Z,1012.64
2022-09-12T01:39:18.388Z,1012.62
2022-09-12T01:40:18.371Z,1012.68
2022-09-12T01:41:18.399Z,1012.67
2022-09-12T01:42:18.289Z,1012.70
2022-09-12T01:43:18.381Z,1012.67
2022-09-12T01:44:18.260Z,1012.66
2022-09-12T01:45:18.328Z,1012.65
2022-09-12T01:46:18.239Z,1012.64
2022-09-12T01:47:18.337Z,1012.65
2022-09-12T01:48:18.232Z,1012.62
2022-09-12T01:49:18.247Z,1012.62
2022-09-12T01:50:18.193Z,1012.63
2022-09-12T01:51:18.263Z,1012.63
2022-09-12T01:52:18.170Z,1012.56
2022-09-12T01:53:18.231Z,1012.56
2022-09-12T01:54:18.151Z,1012.54
2022-09-12T01:55:18.188Z,1012.54
2022-09-12T01:56:18.129Z,1012.55
2022-09-12T01:57:18.202Z,1012.48
2022-09-12T01:58:18.131Z,1012.51
2022-09-12T01:59:18.128Z,1012.48
2022-09-12T02:00:18.082Z,1012.53
2022-09-12T02:01:18.376Z,1012.53
2022-09-12T02:02:18.134Z,1012.57
2022-09-12T02:03:18.092Z,1012.52
2022-09-12T02:04:18.040Z,1012.53
2022-09-12T02:05:20.098Z,1012.53
2022-09-12T02:06:18.021Z,1012.47
2022-09-12T02:07:20.116Z,1012.46
2022-09-12T02:08:18.010Z,1012.44
2022-09-12T02:09:18.999Z,1012.43
2022-09-12T02:10:17.978Z,1012.46
2022-09-12T02:11:17.987Z,1012.46
2022-09-12T02:12:17.952Z,1012.41
2022-09-12T02:13:18.980Z,1012.44
2022-09-12T02:14:17.932Z,1012.35
2022-09-12T02:15:18.955Z,1012.37
2022-09-12T02:16:17.931Z,1012.34
2022-09-12T02:17:17.927Z,1012.34
2022-09-12T02:18:17.907Z,1012.37
2022-09-12T02:19:17.955Z,1012.34
2022-09-12T02:20:37.459Z,1012.35
2022-09-12T02:21:18.852Z,1012.36
2022-09-12T02:22:17.861Z,1012.32
2022-09-12T02:23:17.901Z,1012.31
2022-09-12T02:24:17.876Z,1012.32
2022-09-12T02:25:17.806Z,1012.30
2022-09-12T02:26:17.886Z,1012.35
2022-09-12T02:27:17.784Z,1012.30
2022-09-12T02:28:17.851Z,1012.34
2022-09-12T02:29:17.768Z,1012.34
2022-09-12T02:30:17.829Z,1012.34
2022-09-12T02:31:17.759Z,1012.37
2022-09-12T02:32:17.830Z,1012.33
2022-09-12T02:33:17.734Z,1012.32
2022-09-12T02:34:17.741Z,1012.32
2022-09-12T02:35:17.699Z,1012.33
2022-09-12T02:36:17.752Z,1012.29
2022-09-12T02:37:17.675Z,1012.27
2022-09-12T02:38:17.719Z,1012.28
2022-09-12T02:39:17.652Z,1012.25
2022-09-12T02:40:17.762Z,1012.25
2022-09-12T02:41:18.517Z,1012.25
2022-09-12T02:42:17.689Z,1012.30
2022-09-12T02:43:17.626Z,1012.28
2022-09-12T02:44:17.707Z,1012.28
2022-09-12T02:45:17.589Z,1012.29
2022-09-12T02:46:17.615Z,1012.32
2022-09-12T02:47:17.580Z,1012.27
2022-09-12T02:48:17.684Z,1012.22
2022-09-12T02:49:17.543Z,1012.27
2022-09-12T02:50:17.646Z,1012.25
2022-09-12T02:51:22.909Z,1012.28
2022-09-12T02:52:41.639Z,1012.26
2022-09-12T02:53:17.523Z,1012.30
2022-09-12T02:54:40.607Z,1012.33
2022-09-12T02:55:17.476Z,1012.34
2022-09-12T02:56:17.481Z,1012.32
2022-09-12T02:57:21.922Z,1012.29
2022-09-12T02:58:19.489Z,1012.34
2022-09-12T02:59:17.434Z,1012.33
2022-09-12T03:00:19.456Z,1012.30
2022-09-12T03:01:17.437Z,1012.38
2022-09-12T03:02:17.457Z,1012.37
2022-09-12T03:03:17.423Z,1012.36
2022-09-12T03:04:17.434Z,1012.37
2022-09-12T03:05:17.368Z,1012.32
2022-09-12T03:06:17.446Z,1012.30
2022-09-12T03:07:17.346Z,1012.29
2022-09-12T03:08:17.416Z,1012.32
2022-09-12T03:09:17.322Z,1012.28
2022-09-12T03:10:17.375Z,1012.25
2022-09-12T03:11:17.299Z,1012.23
2022-09-12T03:12:17.388Z,1012.23
2022-09-12T03:13:17.296Z,1012.24
2022-09-12T03:14:17.297Z,1012.22
2022-09-12T03:15:17.257Z,1012.21
2022-09-12T03:16:17.366Z,1012.18
2022-09-12T03:17:17.234Z,1012.18
2022-09-12T03:18:17.275Z,1012.24
2022-09-12T03:19:17.237Z,1012.22
2022-09-12T03:20:17.236Z,1012.26
2022-09-12T03:21:17.192Z,1012.24
2022-09-12T03:22:17.253Z,1012.22
2022-09-12T03:23:17.189Z,1012.23
2022-09-12T03:24:17.267Z,1012.18
2022-09-12T03:25:17.150Z,1012.18
2022-09-12T03:26:17.174Z,1012.18
2022-09-12T03:27:17.127Z,1012.18
2022-09-12T03:28:17.248Z,1012.21
2022-09-12T03:29:17.109Z,1012.14
2022-09-12T03:30:17.204Z,1012.13
2022-09-12T03:31:17.083Z,1012.14
2022-09-12T03:32:17.119Z,1012.17
2022-09-12T03:33:17.086Z,1012.18
2022-09-12T03:34:17.130Z,1012.16
2022-09-12T03:35:20.896Z,1012.12
2022-09-12T03:36:20.111Z,1012.16
2022-09-12T03:37:17.016Z,1012.18
2022-09-12T03:38:17.112Z,1012.22
2022-09-12T03:39:17.004Z,1012.21
2022-09-12T03:40:40.024Z,1012.16
2022-09-12T03:41:16.977Z,1012.20
2022-09-12T03:42:17.000Z,1012.24
2022-09-12T03:43:16.972Z,1012.20
2022-09-12T03:44:17.016Z,1012.19
2022-09-12T03:45:16.935Z,1012.15
2022-09-12T03:46:17.933Z,1012.17
2022-09-12T03:47:16.912Z,1012.17
2022-09-12T03:48:16.969Z,1012.16
2022-09-12T03:49:16.890Z,1012.16
2022-09-12T03:50:16.978Z,1012.16
2022-09-12T03:51:16.901Z,1012.15
2022-09-12T03:52:16.964Z,1012.13
2022-09-12T03:53:17.502Z,1012.16
2022-09-12T03:54:16.859Z,1012.09
2022-09-12T03:55:16.824Z,1012.13
2022-09-12T03:56:16.869Z,1012.09
2022-09-12T03:57:16.802Z,1012.14
2022-09-12T03:58:16.834Z,1012.13
2022-09-12T03:59:16.780Z,1012.09
2022-09-12T04:00:19.809Z,1012.08
2022-09-12T04:01:16.816Z,1012.07
2022-09-12T04:02:16.895Z,1012.11
2022-09-12T04:03:16.752Z,1012.11
2022-09-12T04:04:16.829Z,1012.09
2022-09-12T04:05:16.709Z,1012.11
2022-09-12T04:06:16.738Z,1012.10
2022-09-12T04:07:16.703Z,1012.09
2022-09-12T04:08:16.799Z,1012.12
2022-09-12T04:09:16.668Z,1012.07
2022-09-12T04:10:16.763Z,1012.10
2022-09-12T04:11:16.648Z,1012.07
2022-09-12T04:12:16.677Z,1012.11
2022-09-12T04:13:16.637Z,1012.06
2022-09-12T04:14:16.691Z,1012.07
2022-09-12T04:15:16.602Z,1012.09
2022-09-12T04:16:16.797Z,1012.08
2022-09-12T04:17:16.579Z,1012.09
2022-09-12T04:18:16.675Z,1012.09
2022-09-12T04:19:16.556Z,1012.11
2022-09-12T04:20:16.630Z,1012.10
2022-09-12T04:21:16.538Z,1012.11
2022-09-12T04:22:37.651Z,1012.11
2022-09-12T04:23:16.540Z,1012.13
2022-09-12T04:25:26.135Z,1012.09
2022-09-12T04:26:26.031Z,1012.04
2022-09-12T04:27:26.100Z,1012.08
2022-09-12T04:28:26.020Z,1012.10
2022-09-12T04:29:26.009Z,1012.12
2022-09-12T04:30:26.028Z,1012.08
2022-09-12T04:31:28.069Z,1012.10
2022-09-12T04:32:25.966Z,1012.08
2022-09-12T04:33:25.982Z,1012.09
2022-09-12T04:34:25.943Z,1012.02
2022-09-12T04:36:35.529Z,1012.07
2022-09-12T04:37:35.424Z,1012.04
2022-09-12T04:38:35.547Z,1012.03
2022-09-12T04:39:35.401Z,1012.02
2022-09-12T04:40:37.453Z,1012.05
2022-09-12T04:41:35.378Z,1012.03
2022-09-12T04:42:56.463Z,1012.03
2022-09-12T04:43:35.355Z,1012.05
2022-09-12T04:44:58.372Z,1012.02
2022-09-12T04:45:35.363Z,1012.04
2022-09-12T04:46:35.325Z,1012.06
2022-09-12T04:47:35.349Z,1012.07
2022-09-12T04:48:35.383Z,1012.05
2022-09-12T04:49:35.362Z,1012.00
2022-09-12T04:50:35.274Z,1012.03
2022-09-12T04:51:36.304Z,1012.08
2022-09-12T04:52:35.255Z,1012.09
2022-09-12T04:53:35.347Z,1012.09
2022-09-12T04:54:35.251Z,1012.08
2022-09-12T04:55:35.300Z,1012.08
2022-09-12T04:56:35.210Z,1012.03
2022-09-12T04:57:35.219Z,1012.05
2022-09-12T04:58:35.263Z,1012.05
2022-09-12T04:59:36.250Z,1012.05
2022-09-12T05:00:35.164Z,1012.02
2022-09-12T05:01:35.302Z,1012.05
2022-09-12T05:02:35.191Z,1012.01
2022-09-12T05:03:35.208Z,1012.02
2022-09-12T05:04:35.121Z,1012.02
2022-09-12T05:05:35.170Z,1012.05
2022-09-12T05:06:35.098Z,1012.03
2022-09-12T05:07:35.178Z,1012.07
2022-09-12T05:08:35.174Z,1012.09
2022-09-12T05:09:35.095Z,1011.96
2022-09-12T05:10:35.074Z,1011.96
2022-09-12T05:12:00.067Z,1011.93
2022-09-12T05:12:36.028Z,1011.98
2022-09-12T05:13:35.068Z,1011.98
2022-09-12T05:14:35.011Z,1011.92
2022-09-12T05:15:35.030Z,1011.95
2022-09-12T05:16:35.054Z,1011.96
2022-09-12T05:17:35.043Z,1012.00
2022-09-12T05:18:34.983Z,1011.94
2022-09-12T05:19:35.055Z,1011.99
2022-09-12T05:20:34.945Z,1011.95
2022-09-12T05:21:34.969Z,1011.94
2022-09-12T05:22:34.927Z,1011.92
2022-09-12T05:23:35.038Z,1011.95
2022-09-12T05:24:34.894Z,1011.97
2022-09-12T05:25:34.999Z,1011.97
2022-09-12T05:26:34.893Z,1011.94
2022-09-12T05:27:34.923Z,1011.94
2022-09-12T05:28:34.888Z,1011.90
2022-09-12T05:29:36.868Z,1011.98
2022-09-12T05:30:34.861Z,1011.94
2022-09-12T05:31:34.873Z,1011.92
2022-09-12T05:32:34.995Z,1011.96
2022-09-12T05:33:34.959Z,1011.94
2022-09-12T05:34:34.793Z,1011.91
2022-09-12T05:35:34.859Z,1011.91
2022-09-12T05:36:34.764Z,1011.94
2022-09-12T05:37:34.772Z,1011.93
2022-09-12T05:38:34.800Z,1011.98
2022-09-12T05:39:34.785Z,1011.97
2022-09-12T05:40:34.718Z,1011.95
2022-09-12T05:41:34.798Z,1011.97
2022-09-12T05:42:34.717Z,1011.95
2022-09-12T05:43:34.767Z,1011.96
2022-09-12T05:44:34.726Z,1012.03
2022-09-12T05:45:34.775Z,1011.92
2022-09-12T05:46:34.653Z,1011.98
2022-09-12T05:47:34.736Z,1011.96
2022-09-12T05:48:34.684Z,1012.00
2022-09-12T05:49:34.650Z,1011.97
2022-09-12T05:50:34.610Z,1011.98
2022-09-12T05:51:34.664Z,1011.98
2022-09-12T05:52:34.587Z,1011.97
2022-09-12T05:53:34.732Z,1011.97
2022-09-12T05:54:34.564Z,1011.97
2022-09-12T05:55:34.701Z,1011.98
2022-09-12T05:56:34.551Z,1011.91
2022-09-12T05:57:34.602Z,1011.95
2022-09-12T05:58:34.652Z,1011.89
2022-09-12T05:59:34.619Z,1011.91
2022-09-12T06:00:34.506Z,1011.88
2022-09-12T06:01:34.686Z,1011.89
2022-09-12T06:02:34.506Z,1011.91
2022-09-12T06:03:34.597Z,1011.92
2022-09-12T06:04:34.454Z,1011.88
2022-09-12T06:05:34.558Z,1011.94
2022-09-12T06:06:34.421Z,1011.91
2022-09-12T06:07:34.467Z,1011.89
2022-09-12T06:08:34.415Z,1011.95
2022-09-12T06:09:34.479Z,1011.94
2022-09-12T06:10:34.383Z,1011.94
2022-09-12T06:11:34.496Z,1011.90
2022-09-12T06:12:34.360Z,1011.91
2022-09-12T06:13:34.457Z,1011.96
2022-09-12T06:14:34.349Z,1011.93
2022-09-12T06:15:35.466Z,1011.94
2022-09-12T06:16:34.378Z,1011.97
2022-09-12T06:17:34.331Z,1011.95
2022-09-12T06:18:34.362Z,1011.97
2022-09-12T06:19:34.344Z,1011.99
2022-09-12T06:20:34.269Z,1011.95
2022-09-12T06:21:34.361Z,1011.98
2022-09-12T06:22:34.247Z,1011.98
2022-09-12T06:23:34.333Z,1011.95
2022-09-12T06:24:34.218Z,1011.98
2022-09-12T06:25:34.290Z,1011.97
2022-09-12T06:26:34.195Z,1011.92
2022-09-12T06:27:34.197Z,1011.90
2022-09-12T06:28:34.202Z,1012.00
2022-09-12T06:29:34.217Z,1011.96
2022-09-12T06:30:34.220Z,1011.96
2022-09-12T06:31:34.225Z,1011.89
2022-09-12T06:32:34.130Z,1011.97
2022-09-12T06:33:34.135Z,1011.94
2022-09-12T06:34:34.106Z,1011.92
2022-09-12T06:35:34.156Z,1011.99
2022-09-12T06:36:34.087Z,1011.94
2022-09-12T06:37:34.074Z,1012.01
2022-09-12T06:38:34.124Z,1012.00
2022-09-12T06:39:34.050Z,1011.99
2022-09-12T06:40:34.083Z,1012.01
2022-09-12T06:41:34.037Z,1011.97
2022-09-12T06:42:34.095Z,1011.99
2022-09-12T06:43:34.023Z,1011.94
2022-09-12T06:44:34.008Z,1012.02
2022-09-12T06:45:33.981Z,1011.93
2022-09-12T06:46:34.035Z,1011.94
2022-09-12T06:47:33.963Z,1011.93
2022-09-12T06:48:36.411Z,1011.88
2022-09-12T06:49:33.939Z,1011.90
2022-09-12T06:50:33.946Z,1011.88
2022-09-12T06:51:33.915Z,1011.91
2022-09-12T06:52:34.986Z,1011.89
2022-09-12T06:53:34.016Z,1011.87
2022-09-12T06:54:35.000Z,1011.87
2022-09-12T06:55:33.874Z,1011.90
2022-09-12T06:56:33.868Z,1011.91
2022-09-12T06:57:33.854Z,1011.91
2022-09-12T06:58:35.013Z,1011.85
2022-09-12T06:59:33.825Z,1011.89
2022-09-12T07:00:34.835Z,1011.89
2022-09-12T07:01:33.892Z,1011.89
2022-09-12T07:02:33.867Z,1011.89
2022-09-12T07:03:33.801Z,1011.94
2022-09-12T07:04:33.839Z,1011.84
2022-09-12T07:05:33.758Z,1011.87
2022-09-12T07:06:33.850Z,1011.90
2022-09-12T07:07:33.735Z,1011.92
2022-09-12T07:08:33.884Z,1011.85
2022-09-12T07:09:33.716Z,1011.92
2022-09-12T07:10:33.777Z,1011.90
2022-09-12T07:11:33.695Z,1011.93
2022-09-12T07:12:33.789Z,1011.88
2022-09-12T07:13:33.688Z,1011.92
2022-09-12T07:14:33.704Z,1011.93
2022-09-12T07:15:33.650Z,1011.93
2022-09-12T07:16:33.759Z,1011.95
2022-09-12T07:17:33.627Z,1011.93
2022-09-12T07:18:33.702Z,1011.85
2022-09-12T07:19:33.608Z,1011.87
2022-09-12T07:20:33.594Z,1011.89
2022-09-12T07:21:33.649Z,1011.87
2022-09-12T07:22:33.569Z,1011.91
2022-09-12T07:23:33.626Z,1011.88
2022-09-12T07:24:33.546Z,1011.89
2022-09-12T07:25:33.539Z,1011.84
2022-09-12T07:26:33.527Z,1011.88
2022-09-12T07:27:33.587Z,1011.83
2022-09-12T07:28:33.537Z,1011.89
2022-09-12T07:29:37.201Z,1011.84
2022-09-12T07:30:33.555Z,1011.87
2022-09-12T07:31:33.511Z,1011.83
2022-09-12T07:32:33.458Z,1011.83
2022-09-12T07:33:33.529Z,1011.86
2022-09-12T07:34:33.490Z,1011.86
2022-09-12T07:35:33.436Z,1011.87
2022-09-12T07:36:33.412Z,1011.84
2022-09-12T07:37:33.453Z,1011.81
2022-09-12T07:38:33.402Z,1011.76
2022-09-12T07:39:33.422Z,1011.79
2022-09-12T07:40:33.377Z,1011.84
2022-09-12T07:41:33.384Z,1011.83
2022-09-12T07:42:33.350Z,1011.85
2022-09-12T07:43:54.437Z,1011.83
2022-09-12T07:44:33.326Z,1011.84
2022-09-12T07:45:33.420Z,1011.83
2022-09-12T07:46:33.300Z,1011.83
2022-09-12T07:47:33.313Z,1011.81
2022-09-12T07:48:33.285Z,1011.82
2022-09-12T07:49:33.377Z,1011.83
2022-09-12T07:50:33.272Z,1011.84
2022-09-12T07:51:33.343Z,1011.82
2022-09-12T07:52:33.236Z,1011.87
2022-09-12T07:53:33.354Z,1011.87
2022-09-12T07:54:33.233Z,1011.85
2022-09-12T07:55:33.269Z,1011.82
2022-09-12T07:56:38.237Z,1011.83
2022-09-12T07:57:34.306Z,1011.85
2022-09-12T07:58:33.187Z,1011.87
2022-09-12T07:59:51.380Z,1011.83
2022-09-12T08:00:34.148Z,1011.87
2022-09-12T08:01:33.308Z,1011.88
2022-09-12T08:02:33.180Z,1011.82
2022-09-12T08:03:33.176Z,1011.87
2022-09-12T08:04:33.100Z,1011.84
2022-09-12T08:05:33.134Z,1011.92
2022-09-12T08:06:33.096Z,1011.93
2022-09-12T08:07:33.147Z,1011.89
2022-09-12T08:08:33.075Z,1011.88
2022-09-12T08:09:33.163Z,1011.88
2022-09-12T08:10:33.040Z,1011.89
2022-09-12T08:11:33.073Z,1011.91
2022-09-12T08:12:33.015Z,1011.92
2022-09-12T08:13:33.138Z,1011.91
2022-09-12T08:14:32.990Z,1011.93
2022-09-12T08:15:33.149Z,1011.94
2022-09-12T08:16:32.995Z,1011.91
2022-09-12T08:17:33.011Z,1011.97
2022-09-12T08:18:32.963Z,1011.95
2022-09-12T08:19:33.024Z,1011.88
2022-09-12T08:20:32.928Z,1011.90
2022-09-12T08:21:33.045Z,1011.90
2022-09-12T08:22:32.943Z,1011.88
2022-09-12T08:23:33.011Z,1011.90
2022-09-12T08:24:32.885Z,1011.92
2022-09-12T08:25:32.939Z,1011.88
2022-09-12T08:26:32.875Z,1011.88
2022-09-12T08:27:32.981Z,1011.91
2022-09-12T08:28:32.858Z,1011.96
2022-09-12T08:29:32.889Z,1011.96
2022-09-12T08:30:32.857Z,1011.95
2022-09-12T08:31:34.846Z,1011.92
2022-09-12T08:32:32.794Z,1011.90
2022-09-12T08:33:32.866Z,1011.92
2022-09-12T08:34:32.778Z,1011.88
2022-09-12T08:35:32.832Z,1011.89
2022-09-12T08:36:32.752Z,1011.87
2022-09-12T08:37:32.841Z,1011.89
2022-09-12T08:38:32.767Z,1011.87
2022-09-12T08:39:32.756Z,1011.83
2022-09-12T08:40:33.709Z,1011.84
2022-09-12T08:41:32.768Z,1011.84
2022-09-12T08:42:32.783Z,1011.83
2022-09-12T08:43:32.736Z,1011.85
2022-09-12T08:44:32.659Z,1011.89
2022-09-12T08:45:32.692Z,1011.84
2022-09-12T08:46:32.639Z,1011.84
2022-09-12T08:47:32.713Z,1011.89
2022-09-12T08:48:32.637Z,1011.90
2022-09-12T08:49:32.718Z,1011.86
2022-09-12T08:50:32.595Z,1011.85
2022-09-12T08:51:32.661Z,1011.87
2022-09-12T08:52:32.575Z,1011.84
2022-09-12T08:53:32.708Z,1011.89
2022-09-12T08:54:32.566Z,1011.87
2022-09-12T08:55:32.558Z,1011.82
2022-09-12T08:56:32.532Z,1011.82
2022-09-12T08:57:32.569Z,1011.81
2022-09-12T08:58:32.526Z,1011.85
2022-09-12T08:59:32.494Z,1011.81
2022-09-12T09:00:32.598Z,1011.78
2022-09-12T09:01:32.523Z,1011.77
2022-09-12T09:02:32.564Z,1011.80
2022-09-12T09:03:32.567Z,1011.80
2022-09-12T09:04:32.439Z,1011.74
2022-09-12T09:05:32.524Z,1011.76
2022-09-12T09:06:32.419Z,1011.77
2022-09-12T09:07:55.478Z,1011.78
2022-09-12T09:08:32.415Z,1011.67
2022-09-12T09:10:42.058Z,1011.65
2022-09-12T09:11:41.921Z,1011.67
2022-09-12T09:12:41.992Z,1011.71
2022-09-12T09:13:41.974Z,1011.67
2022-09-12T09:14:41.901Z,1011.67
2022-09-12T09:15:41.929Z,1011.64
2022-09-12T09:16:41.915Z,1011.63
2022-09-12T09:17:41.859Z,1011.64
2022-09-12T09:18:43.929Z,1011.54
2022-09-12T09:19:41.841Z,1011.59
2022-09-12T09:20:43.894Z,1011.55
2022-09-12T09:21:41.819Z,1011.54
2022-09-12T09:23:51.440Z,1011.62
2022-09-12T09:24:51.334Z,1011.63
2022-09-12T09:25:51.419Z,1011.61
2022-09-12T09:26:51.307Z,1011.63
2022-09-12T09:27:51.312Z,1011.63
2022-09-12T09:28:51.309Z,1011.58
2022-09-12T09:29:51.325Z,1011.66
2022-09-12T09:30:51.339Z,1011.66
2022-09-12T09:31:51.338Z,1011.64
2022-09-12T09:32:51.244Z,1011.63
2022-09-12T09:33:53.354Z,1011.60
2022-09-12T09:34:51.219Z,1011.54
2022-09-12T09:36:13.289Z,1011.57
2022-09-12T09:36:51.200Z,1011.65
2022-09-12T09:37:53.605Z,1011.59
2022-09-12T09:38:54.215Z,1011.54
2022-09-12T09:39:51.224Z,1011.59
2022-09-12T09:40:51.153Z,1011.61
2022-09-12T09:41:51.225Z,1011.62
2022-09-12T09:42:51.136Z,1011.62
2022-09-12T09:43:51.176Z,1011.61
2022-09-12T09:44:51.112Z,1011.54
2022-09-12T09:45:51.145Z,1011.56
2022-09-12T09:46:51.088Z,1011.59
2022-09-12T09:47:51.145Z,1011.54
2022-09-12T09:48:51.081Z,1011.56
2022-09-12T09:49:51.166Z,1011.55
2022-09-12T09:50:51.046Z,1011.53
2022-09-12T09:51:51.069Z,1011.54
2022-09-12T09:52:51.023Z,1011.53
2022-09-12T09:53:51.152Z,1011.55
2022-09-12T09:54:51.000Z,1011.50
2022-09-12T09:55:51.092Z,1011.54
2022-09-12T09:56:50.979Z,1011.55
2022-09-12T09:57:51.027Z,1011.56
2022-09-12T09:58:50.975Z,1011.54
2022-09-12T09:59:51.022Z,1011.50
2022-09-12T10:00:53.743Z,1011.49
2022-09-12T10:01:52.032Z,1011.54
2022-09-12T10:02:50.984Z,1011.46
2022-09-12T10:03:50.997Z,1011.47
2022-09-12T10:04:50.889Z,1011.46
2022-09-12T10:05:50.961Z,1011.46
2022-09-12T10:06:50.870Z,1011.47
2022-09-12T10:07:50.974Z,1011.45
2022-09-12T10:08:50.867Z,1011.45
2022-09-12T10:09:50.920Z,1011.43
2022-09-12T10:10:50.826Z,1011.41
2022-09-12T10:11:50.896Z,1011.41
2022-09-12T10:12:50.806Z,1011.36
2022-09-12T10:13:50.879Z,1011.37
2022-09-12T10:14:50.782Z,1011.34
2022-09-12T10:15:52.036Z,1011.39
2022-09-12T10:16:50.765Z,1011.39
2022-09-12T10:17:50.939Z,1011.39
2022-09-12T10:18:50.759Z,1011.37
2022-09-12T10:20:04.841Z,1011.43
2022-09-12T10:20:51.716Z,1011.42
2022-09-12T10:21:51.888Z,1011.40
2022-09-12T10:22:50.698Z,1011.45
2022-09-12T10:23:50.830Z,1011.43
2022-09-12T10:24:50.681Z,1011.44
2022-09-12T10:25:51.814Z,1011.45
2022-09-12T10:26:55.849Z,1011.45
2022-09-12T10:27:52.852Z,1011.46
2022-09-12T10:28:50.647Z,1011.40
2022-09-12T10:29:50.837Z,1011.43
2022-09-12T10:30:50.656Z,1011.42
2022-09-12T10:31:50.730Z,1011.46
2022-09-12T10:32:50.599Z,1011.41
2022-09-12T10:33:50.700Z,1011.45
2022-09-12T10:34:50.564Z,1011.47
2022-09-12T10:35:50.657Z,1011.41
2022-09-12T10:36:50.540Z,1011.39
2022-09-12T10:37:52.362Z,1011.45
2022-09-12T10:38:50.549Z,1011.46
2022-09-12T10:39:50.797Z,1011.46
2022-09-12T10:40:50.498Z,1011.47
2022-09-12T10:41:50.694Z,1011.49
2022-09-12T10:42:50.475Z,1011.51
2022-09-12T10:43:50.663Z,1011.46
2022-09-12T10:44:50.457Z,1011.38
2022-09-12T10:45:50.552Z,1011.38
2022-09-12T10:46:50.434Z,1011.40
2022-09-12T10:47:50.633Z,1011.46
2022-09-12T10:48:50.432Z,1011.40
2022-09-12T10:49:50.442Z,1011.39
2022-09-12T10:50:50.391Z,1011.32
2022-09-12T10:51:50.459Z,1011.36
2022-09-12T10:52:50.371Z,1011.37
2022-09-12T10:53:50.524Z,1011.24
2022-09-12T10:54:50.348Z,1011.23
2022-09-12T10:55:50.380Z,1011.20
2022-09-12T10:56:50.332Z,1011.20
2022-09-12T10:57:50.398Z,1011.17
2022-09-12T10:58:50.322Z,1011.24
2022-09-12T10:59:50.411Z,1011.22
2022-09-12T11:00:50.291Z,1011.22
2022-09-12T11:01:50.354Z,1011.20
2022-09-12T11:02:51.535Z,1011.23
2022-09-12T11:03:50.275Z,1011.24
2022-09-12T11:04:50.341Z,1011.25
2022-09-12T11:05:50.246Z,1011.27
2022-09-12T11:06:50.357Z,1011.07
2022-09-12T11:07:50.210Z,1011.03
2022-09-12T11:08:50.319Z,1011.04
2022-09-12T11:09:50.191Z,1011.05
2022-09-12T11:10:50.279Z,1011.00
2022-09-12T11:11:50.168Z,1011.05
2022-09-12T11:12:51.321Z,1011.01
2022-09-12T11:13:50.164Z,1011.06
2022-09-12T11:14:51.333Z,1011.07
2022-09-12T11:15:50.171Z,1010.97
2022-09-12T11:16:51.247Z,1011.01
2022-09-12T11:17:50.117Z,1010.98
2022-09-12T11:18:51.316Z,1010.99
2022-09-12T11:19:50.104Z,1010.93
2022-09-12T11:20:52.199Z,1010.96
2022-09-12T11:21:50.061Z,1010.96
2022-09-12T11:22:50.262Z,1011.02
2022-09-12T11:23:50.061Z,1010.96
2022-09-12T11:24:50.174Z,1011.01
2022-09-12T11:25:50.027Z,1010.95
2022-09-12T11:26:51.217Z,1011.05
2022-09-12T11:27:49.999Z,1011.01
2022-09-12T11:28:50.160Z,1011.06
2022-09-12T11:29:49.987Z,1011.14
2022-09-12T11:30:50.154Z,1011.12
2022-09-12T11:31:50.826Z,1011.05
2022-09-12T11:32:50.136Z,1011.05
2022-09-12T11:33:50.054Z,1011.06
2022-09-12T11:34:50.039Z,1011.11
2022-09-12T11:35:54.997Z,1011.04
2022-09-12T11:36:51.079Z,1011.01
2022-09-12T11:37:49.896Z,1011.01
2022-09-12T11:38:50.022Z,1010.96
2022-09-12T11:39:54.769Z,1010.97
2022-09-12T11:40:51.013Z,1010.89
2022-09-12T11:41:49.855Z,1010.95
2022-09-12T11:42:49.990Z,1010.98
2022-09-12T11:43:49.851Z,1011.00
2022-09-12T11:44:49.903Z,1010.93
2022-09-12T11:45:49.880Z,1010.92
2022-09-12T11:46:52.147Z,1011.01
2022-09-12T11:47:49.789Z,1011.00
2022-09-12T11:48:49.990Z,1011.09
2022-09-12T11:49:49.785Z,1011.10
2022-09-12T11:50:49.946Z,1011.07
2022-09-12T11:51:49.753Z,1011.06
2022-09-12T11:52:49.855Z,1011.14
2022-09-12T11:53:49.748Z,1011.07
2022-09-12T11:54:53.705Z,1011.04
2022-09-12T11:55:49.713Z,1011.05
2022-09-12T11:56:49.882Z,1011.05
2022-09-12T11:57:49.692Z,1011.04
2022-09-12T11:58:53.051Z,1011.00
2022-09-12T11:59:49.667Z,1011.08
2022-09-12T12:00:51.861Z,1011.07
2022-09-12T12:01:49.647Z,1011.05
2022-09-12T12:02:51.768Z,1011.10
2022-09-12T12:03:49.691Z,1011.02
2022-09-12T12:04:49.733Z,1011.07
2022-09-12T12:05:49.622Z,1011.06
2022-09-12T12:06:49.646Z,1011.01
2022-09-12T12:07:49.586Z,1010.99
2022-09-12T12:08:49.611Z,1011.01
2022-09-12T12:09:49.568Z,1010.97
2022-09-12T12:10:49.560Z,1010.95